地図

経路データ

SID SEASON NUMBER BASIN SUBBASIN NAME ISO_TIME NATURE LAT LON WMO_WIND WMO_PRES WMO_AGENCY TRACK_TYPE DIST2LAND LANDFALL IFLAG USA_AGENCY USA_ATCF_ID USA_LAT USA_LON USA_RECORD USA_STATUS USA_WIND USA_PRES USA_SSHS USA_R34_NE USA_R34_SE USA_R34_SW USA_R34_NW USA_R50_NE USA_R50_SE USA_R50_SW USA_R50_NW USA_R64_NE USA_R64_SE USA_R64_SW USA_R64_NW USA_POCI USA_ROCI USA_RMW USA_EYE TOKYO_LAT TOKYO_LON TOKYO_GRADE TOKYO_WIND TOKYO_PRES TOKYO_R50_DIR TOKYO_R50_LONG TOKYO_R50_SHORT TOKYO_R30_DIR TOKYO_R30_LONG TOKYO_R30_SHORT TOKYO_LAND CMA_LAT CMA_LON CMA_CAT CMA_WIND CMA_PRES HKO_LAT HKO_LON HKO_CAT HKO_WIND HKO_PRES NEWDELHI_LAT NEWDELHI_LON NEWDELHI_GRADE NEWDELHI_WIND NEWDELHI_PRES NEWDELHI_CI NEWDELHI_DP NEWDELHI_POCI REUNION_LAT REUNION_LON REUNION_TYPE REUNION_WIND REUNION_PRES REUNION_TNUM REUNION_CI REUNION_RMW REUNION_R34_NE REUNION_R34_SE REUNION_R34_SW REUNION_R34_NW REUNION_R50_NE REUNION_R50_SE REUNION_R50_SW REUNION_R50_NW REUNION_R64_NE REUNION_R64_SE REUNION_R64_SW REUNION_R64_NW BOM_LAT BOM_LON BOM_TYPE BOM_WIND BOM_PRES BOM_TNUM BOM_CI BOM_RMW BOM_R34_NE BOM_R34_SE BOM_R34_SW BOM_R34_NW BOM_R50_NE BOM_R50_SE BOM_R50_SW BOM_R50_NW BOM_R64_NE BOM_R64_SE BOM_R64_SW BOM_R64_NW BOM_ROCI BOM_POCI BOM_EYE BOM_POS_METHOD BOM_PRES_METHOD NADI_LAT NADI_LON NADI_CAT NADI_WIND NADI_PRES WELLINGTON_LAT WELLINGTON_LON WELLINGTON_WIND WELLINGTON_PRES DS824_LAT DS824_LON DS824_STAGE DS824_WIND DS824_PRES TD9636_LAT TD9636_LON TD9636_STAGE TD9636_WIND TD9636_PRES TD9635_LAT TD9635_LON TD9635_WIND TD9635_PRES TD9635_ROCI NEUMANN_LAT NEUMANN_LON NEUMANN_CLASS NEUMANN_WIND NEUMANN_PRES MLC_LAT MLC_LON MLC_CLASS MLC_WIND MLC_PRES USA_GUST BOM_GUST BOM_GUST_PER REUNION_GUST REUNION_GUST_PER USA_SEAHGT USA_SEARAD_NE USA_SEARAD_SE USA_SEARAD_SW USA_SEARAD_NW STORM_SPEED STORM_DIR
1908040S15069 1908 9 SI MM NOT_NAMED 1908-02-09 00:00:00 TS -14.9000 69.4000 main 1369 1345 _________O____ -1 -14.9000 69.4000 TC 5 244
1908040S15069 1908 9 SI MM NOT_NAMED 1908-02-09 03:00:00 TS -15.0026 69.1876 main 1345 1320 _________P____ -1 -15.0026 69.1876 TC 4 243
1908040S15069 1908 9 SI MM NOT_NAMED 1908-02-09 06:00:00 TS -15.1000 69.0000 main 1320 1306 _________O____ -1 -15.1000 69.0000 TC 4 240
1908040S15069 1908 9 SI MM NOT_NAMED 1908-02-09 09:00:00 TS -15.1925 68.8499 main 1296 1282 _________P____ -1 -15.1925 68.8499 TC 4 236
1908040S15069 1908 9 SI MM NOT_NAMED 1908-02-09 12:00:00 TS -15.3000 68.7000 main 1282 1257 _________O____ -1 -15.3000 68.7000 TC 4 233
1908040S15069 1908 9 SI MM NOT_NAMED 1908-02-09 15:00:00 TS -15.4425 68.5075 main 1257 1228 _________P____ -1 -15.4425 68.5075 TC 5 232
1908040S15069 1908 9 SI MM NOT_NAMED 1908-02-09 18:00:00 TS -15.6000 68.3000 main 1228 1204 _________O____ -1 -15.6000 68.3000 TC 5 231
1908040S15069 1908 9 SI MM NOT_NAMED 1908-02-09 21:00:00 TS -15.7500 68.1075 main 1204 1175 _________P____ -1 -15.7500 68.1075 TC 5 232
1908040S15069 1908 9 SI MM NOT_NAMED 1908-02-10 00:00:00 TS -15.9000 67.9000 main 1175 1151 _________O____ -1 -15.9000 67.9000 TC 5 236
1908040S15069 1908 9 SI MM NOT_NAMED 1908-02-10 03:00:00 TS -16.0425 67.6500 main 1141 1112 _________P____ -1 -16.0425 67.6500 TC 6 238
1908040S15069 1908 9 SI MM NOT_NAMED 1908-02-10 06:00:00 TS -16.2000 67.4000 main 1112 1083 _________O____ -1 -16.2000 67.4000 TC 6 232
1908040S15069 1908 9 SI MM NOT_NAMED 1908-02-10 09:00:00 TS -16.3849 67.1999 main 1083 1054 _________P____ -1 -16.3849 67.1999 TC 6 224
1908040S15069 1908 9 SI MM NOT_NAMED 1908-02-10 12:00:00 TS -16.6000 67.0000 main 1054 1026 _________O____ -1 -16.6000 67.0000 TC 6 223
1908040S15069 1908 9 SI MM NOT_NAMED 1908-02-10 15:00:00 TS -16.8425 66.7500 main 1026 983 _________P____ -1 -16.8425 66.7500 TC 7 224
1908040S15069 1908 9 SI MM NOT_NAMED 1908-02-10 18:00:00 TS -17.1000 66.5000 main 983 955 _________O____ -1 -17.1000 66.5000 TC 7 221
1908040S15069 1908 9 SI MM NOT_NAMED 1908-02-10 21:00:00 TS -17.3575 66.2850 main 951 923 _________P____ -1 -17.3575 66.2850 TC 6 217
1908040S15069 1908 9 SI MM NOT_NAMED 1908-02-11 00:00:00 TS -17.6000 66.1000 main 923 895 _________O____ -1 -17.6000 66.1000 TC 6 216
1908040S15069 1908 9 SI MM NOT_NAMED 1908-02-11 03:00:00 TS -17.8075 65.9349 main 895 878 _________P____ -1 -17.8075 65.9349 TC 5 215
1908040S15069 1908 9 SI MM NOT_NAMED 1908-02-11 06:00:00 TS -18.0000 65.8000 main 878 861 _________O____ -1 -18.0000 65.8000 TC 5 210
1908040S15069 1908 9 SI MM NOT_NAMED 1908-02-11 09:00:00 TS -18.2000 65.6999 main 861 845 _________P____ -1 -18.2000 65.6999 TC 4 205
1908040S15069 1908 9 SI MM NOT_NAMED 1908-02-11 12:00:00 TS -18.4000 65.6000 main 845 829 _________O____ -1 -18.4000 65.6000 TC 5 212
1908040S15069 1908 9 SI MM NOT_NAMED 1908-02-11 15:00:00 TS -18.5925 65.4425 main 819 803 _________P____ -1 -18.5925 65.4425 TC 5 215
1908040S15069 1908 9 SI MM NOT_NAMED 1908-02-11 18:00:00 TS -18.8000 65.3000 main 803 788 _________O____ -1 -18.8000 65.3000 TC 5 204
1908040S15069 1908 9 SI MM NOT_NAMED 1908-02-11 21:00:00 TS -19.0350 65.2275 main 788 782 _________P____ -1 -19.0350 65.2275 TC 5 191
1908040S15069 1908 9 SI MM NOT_NAMED 1908-02-12 00:00:00 TS -19.3000 65.2000 main 782 777 _________O____ -1 -19.3000 65.2000 TC 6 185
1908040S15069 1908 9 SI MM NOT_NAMED 1908-02-12 03:00:00 TS -19.5925 65.1925 main 777 773 _________P____ -1 -19.5925 65.1925 TC 6 179
1908040S15069 1908 9 SI MM NOT_NAMED 1908-02-12 06:00:00 TS -19.9000 65.2000 main 773 771 _________O____ -1 -19.9000 65.2000 TC 6 178
1908040S15069 1908 9 SI MM NOT_NAMED 1908-02-12 09:00:00 TS -20.2000 65.2000 main 771 771 _________P____ -1 -20.2000 65.2000 TC 6 179
1908040S15069 1908 9 SI MM NOT_NAMED 1908-02-12 12:00:00 TS -20.5000 65.2000 main 771 771 _________O____ -1 -20.5000 65.2000 TC 6 179
1908040S15069 1908 9 SI MM NOT_NAMED 1908-02-12 15:00:00 TS -20.8000 65.2000 main 772 772 _________P____ -1 -20.8000 65.2000 TC 6 180
1908040S15069 1908 9 SI MM NOT_NAMED 1908-02-12 18:00:00 TS -21.1000 65.2000 main 774 774 _________O____ -1 -21.1000 65.2000 TC 6 178
1908040S15069 1908 9 SI MM NOT_NAMED 1908-02-12 21:00:00 TS -21.3550 65.2000 main 778 778 _________P____ -1 -21.3550 65.2000 TC 6 179
1908040S15069 1908 9 SI MM NOT_NAMED 1908-02-13 00:00:00 TS -21.7000 65.2000 main 783 783 _________O____ -1 -21.7000 65.2000 TC 9 0
1908040S15069 1908 9 SI MM NOT_NAMED 1908-02-13 03:00:00 TS -22.2625 65.1926 main 798 798 _________P____ -1 -22.2625 65.1926 TC 12 179
1908040S15069 1908 9 SI MM NOT_NAMED 1908-02-13 06:00:00 TS -22.9000 65.2000 main 818 818 _________O____ -1 -22.9000 65.2000 TC 12 178
1908040S15069 1908 9 SI MM NOT_NAMED 1908-02-13 09:00:00 TS -23.4275 65.2277 main 838 838 _________P____ -1 -23.4275 65.2277 TC 11 175
1908040S15069 1908 9 SI MM NOT_NAMED 1908-02-13 12:00:00 TS -24.0000 65.3000 main 874 874 _________O____ -1 -24.0000 65.3000 TC 13 172
1908040S15069 1908 9 SI MM NOT_NAMED 1908-02-13 15:00:00 TS -24.7200 65.4275 main 918 918 _________P____ -1 -24.7200 65.4275 TC 15 170
1908040S15069 1908 9 SI MM NOT_NAMED 1908-02-13 18:00:00 TS -25.5000 65.6000 main 982 982 _________O____ -1 -25.5000 65.6000 TC 17 168
1908040S15069 1908 9 SI MM NOT_NAMED 1908-02-13 21:00:00 TS -26.3250 65.8145 main 1049 1049 _________P____ -1 -26.3250 65.8145 TC 15 167
1908040S15069 1908 9 SI MM NOT_NAMED 1908-02-14 00:00:00 TS -27.0000 66.0000 main 1113 1113 _________O____ -1 -27.0000 66.0000 TC 10 167
1908040S15069 1908 9 SI MM NOT_NAMED 1908-02-14 03:00:00 TS -27.3249 66.0730 main 1142 1142 _________P____ -1 -27.3249 66.0730 TC 5 170
1908040S15069 1908 9 SI MM NOT_NAMED 1908-02-14 06:00:00 TS -27.5000 66.1000 main 1156 1156 _________O____ -1 -27.5000 66.1000 TC 4 173
1908040S15069 1908 9 SI MM NOT_NAMED 1908-02-14 09:00:00 TS -27.7425 66.1426 main 1171 1171 _________P____ -1 -27.7425 66.1426 TC 5 170
1908040S15069 1908 9 SI MM NOT_NAMED 1908-02-14 12:00:00 TS -28.0000 66.2000 main 1200 1200 _________O____ -1 -28.0000 66.2000 TC 6 167
1908040S15069 1908 9 SI MM NOT_NAMED 1908-02-14 15:00:00 TS -28.3000 66.2925 main 1230 1230 _________P____ -1 -28.3000 66.2925 TC 6 164
1908040S15069 1908 9 SI MM NOT_NAMED 1908-02-14 18:00:00 TS -28.6000 66.4000 main 1261 1261 _________O____ -1 -28.6000 66.4000 TC 6 161
1908040S15069 1908 9 SI MM NOT_NAMED 1908-02-14 21:00:00 TS -28.8350 66.5001 main 1283 1283 _________P____ -1 -28.8350 66.5001 TC 5 160
1908040S15069 1908 9 SI MM NOT_NAMED 1908-02-15 00:00:00 TS -29.1000 66.6000 main 1313 1313 _________O____ -1 -29.1000 66.6000 TC 7 165
1908040S15069 1908 9 SI MM NOT_NAMED 1908-02-15 03:00:00 TS -29.4850 66.6926 main 1352 1352 _________P____ -1 -29.4850 66.6926 TC 8 168
1908040S15069 1908 9 SI MM NOT_NAMED 1908-02-15 06:00:00 TS -29.9000 66.8000 main 1391 1391 _________O____ -1 -29.9000 66.8000 TC 8 164
1908040S15069 1908 9 SI MM NOT_NAMED 1908-02-15 09:00:00 TS -30.2650 66.9499 main 1430 1430 _________P____ -1 -30.2650 66.9499 TC 7 160
1908040S15069 1908 9 SI MM NOT_NAMED 1908-02-15 12:00:00 TS -30.6000 67.1000 main 1468 1468 _________O____ -1 -30.6000 67.1000 TC 7 161
1908040S15069 1908 9 SI MM NOT_NAMED 1908-02-15 15:00:00 TS -30.9075 67.2002 main 1499 1499 _________P____ -1 -30.9075 67.2002 TC 6 164
1908040S15069 1908 9 SI MM NOT_NAMED 1908-02-15 18:00:00 TS -31.2000 67.3000 main 1531 1531 _________O____ -1 -31.2000 67.3000 TC 6 161
1908040S15069 1908 9 SI MM NOT_NAMED 1908-02-15 21:00:00 TS -31.4976 67.4372 main 1562 1562 _________P____ -1 -31.4976 67.4372 TC 7 157
1908040S15069 1908 9 SI MM NOT_NAMED 1908-02-16 00:00:00 TS -31.8000 67.6000 main 1600 _________O____ -1 -31.8000 67.6000 TC 7 156

IBTrACS Databaseについて

本データベースは、米国NOAAが公開する1842年以降の世界の熱帯低気圧のベストトラックデータアーカイブInternational Best Track Archive for Climate Stewardship (IBTrACS)を、ウェブで閲覧しやすい形式に変換したものです。

最終更新日:2021-10-21